Time;durP1;ratioP1;P1;durP2;ratioP2;P2;SDS_P1;SDS_P2;PMS_P1;PMS_P2;Temp;Humidity;BMP_temperature;BMP_pressure;BME280_temperature;BME280_humidity;BME280_pressure;Samples;Min_cycle;Max_cycle;Signal;HPM_P1;HPM_P2
2020/12/09 00:02:09;;;;;;;2.40;1.33;;;;;;;3.79;90.52;100418.97;5053417;28;20441;-75
2020/12/09 00:04:36;;;;;;;13.70;4.43;;;;;;;3.79;91.35;100430.50;5053383;28;20446;-75
2020/12/09 00:07:02;;;;;;;2.57;2.27;;;;;;;3.74;91.34;100419.75;5052893;28;20486;-74
2020/12/09 00:09:28;;;;;;;1.13;0.93;;;;;;;3.75;91.58;100418.69;5053413;28;20526;-75
2020/12/09 00:11:55;;;;;;;7.03;2.13;;;;;;;3.75;91.81;100420.56;5053314;28;20447;-75
2020/12/09 00:14:22;;;;;;;15.50;2.83;;;;;;;3.82;91.70;100431.84;5052988;28;20993;-75
2020/12/09 00:16:49;;;;;;;1.13;1.13;;;;;;;3.83;91.47;100438.03;5053300;28;20478;-75
2020/12/09 00:19:15;;;;;;;1.67;1.60;;;;;;;3.85;91.51;100438.56;5054308;28;20481;-73
2020/12/09 00:21:41;;;;;;;4.47;3.30;;;;;;;3.92;91.47;100447.97;5053063;28;20474;-74
2020/12/09 00:24:07;;;;;;;4.90;1.37;;;;;;;3.97;90.81;100456.03;5052726;28;20870;-74
2020/12/09 00:26:34;;;;;;;1.33;1.23;;;;;;;3.92;90.58;100449.84;5052626;28;20506;-74
2020/12/09 00:29:01;;;;;;;0.90;0.87;;;;;;;3.89;89.86;100448.47;5052685;28;20492;-74
2020/12/09 00:31:30;;;;;;;2.50;2.30;;;;;;;3.94;89.48;100455.75;5053014;28;20446;-74
2020/12/09 00:33:58;;;;;;;1.73;1.63;;;;;;;3.91;89.49;100450.94;5052682;28;21009;-74
2020/12/09 00:36:24;;;;;;;0.97;0.97;;;;;;;3.86;90.26;100448.22;5053540;28;20514;-74
2020/12/09 00:38:53;;;;;;;2.10;0.90;;;;;;;3.93;89.50;100444.22;5056613;28;20997;-74
2020/12/09 00:41:21;;;;;;;7.83;2.23;;;;;;;3.91;88.85;100450.94;5056902;28;20446;-73
2020/12/09 00:43:48;;;;;;;1.23;1.17;;;;;;;3.91;89.40;100448.25;5056889;28;20867;-74
2020/12/09 00:46:15;;;;;;;1.60;1.50;;;;;;;3.91;88.89;100442.88;5056771;28;20489;-74
2020/12/09 00:48:41;;;;;;;1.63;1.53;;;;;;;3.88;89.51;100440.72;5056796;28;20439;-72
2020/12/09 00:51:13;;;;;;;1.57;1.27;;;;;;;3.86;89.78;100435.63;5056445;28;20442;-71
2020/12/09 00:53:39;;;;;;;2.93;2.07;;;;;;;3.83;90.42;100432.66;5056691;28;20480;-72
2020/12/09 00:56:07;;;;;;;6.43;2.50;;;;;;;3.84;91.02;100437.75;5056192;28;20995;-72
2020/12/09 00:58:33;;;;;;;25.87;1.33;;;;;;;3.90;91.27;100442.09;5056252;28;20944;-72
2020/12/09 01:00:59;;;;;;;1.87;1.63;;;;;;;3.91;90.98;100441.00;5056527;28;20488;-72
2020/12/09 01:03:25;;;;;;;3.03;2.83;;;;;;;3.92;91.08;100441.81;5056192;28;20935;-72
2020/12/09 01:05:52;;;;;;;8.63;3.63;;;;;;;3.92;91.17;100441.81;5056348;28;20512;-72
2020/12/09 01:08:19;;;;;;;24.83;4.97;;;;;;;3.93;91.15;100438.06;5056449;28;20499;-72
2020/12/09 01:10:45;;;;;;;5.20;2.10;;;;;;;3.94;91.37;100435.13;5056414;28;20868;-72
2020/12/09 01:13:11;;;;;;;3.93;1.50;;;;;;;3.98;90.96;100436.19;5056342;28;20446;-71
2020/12/09 01:15:37;;;;;;;0.70;0.60;;;;;;;4.00;90.95;100438.66;5056117;28;20454;-71
2020/12/09 01:18:04;;;;;;;2.30;1.60;;;;;;;4.00;91.29;100422.56;5056201;28;20503;-71
2020/12/09 01:20:30;;;;;;;0.73;0.73;;;;;;;3.99;91.09;100437.84;5055827;28;20989;-71
2020/12/09 01:22:56;;;;;;;1.87;1.77;;;;;;;4.00;91.05;100444.00;5056179;28;20861;-71
2020/12/09 01:25:23;;;;;;;1.37;1.27;;;;;;;4.00;90.70;100438.66;5055729;28;20473;-71
2020/12/09 01:27:49;;;;;;;12.00;2.87;;;;;;;4.03;90.54;100454.22;5056057;28;20488;-70
2020/12/09 01:30:15;;;;;;;0.60;0.57;;;;;;;3.90;91.10;100458.16;5056023;28;20438;-70
2020/12/09 01:32:41;;;;;;;1.23;1.23;;;;;;;3.95;90.24;100462.75;5055961;28;20442;-71
2020/12/09 01:35:08;;;;;;;2.50;1.80;;;;;;;3.99;89.97;100455.78;5055513;28;20811;-71
2020/12/09 01:37:34;;;;;;;2.50;2.30;;;;;;;3.98;90.10;100451.47;5055768;28;20898;-71
2020/12/09 01:40:00;;;;;;;7.90;1.77;;;;;;;4.04;90.16;100453.13;5055829;28;20512;-70
2020/12/09 01:42:27;;;;;;;6.57;1.40;;;;;;;4.09;89.58;100453.16;5055816;28;20488;-71
2020/12/09 01:44:53;;;;;;;5.40;1.83;;;;;;;4.08;89.22;100454.22;5055705;28;20887;-70
2020/12/09 01:47:20;;;;;;;0.63;0.63;;;;;;;4.10;89.42;100453.97;5055299;28;20892;-71
2020/12/09 01:49:46;;;;;;;2.70;2.43;;;;;;;4.11;89.83;100444.84;5055604;28;20853;-70
2020/12/09 01:52:12;;;;;;;3.23;2.50;;;;;;;4.10;91.15;100451.28;5055630;28;20523;-71
2020/12/09 01:54:39;;;;;;;1.63;1.20;;;;;;;4.13;92.54;100448.88;5055495;28;20480;-70
2020/12/09 01:57:06;;;;;;;4.17;2.80;;;;;;;4.11;92.99;100442.97;5055378;28;20963;-71
2020/12/09 01:59:34;;;;;;;2.80;1.40;;;;;;;4.09;93.47;100437.06;5055447;28;20468;-70
2020/12/09 02:02:00;;;;;;;1.00;0.93;;;;;;;4.12;94.02;100431.19;5055429;28;20469;-71
2020/12/09 02:04:27;;;;;;;1.93;1.83;;;;;;;4.10;94.59;100422.59;5055084;28;20492;-70
2020/12/09 02:06:54;;;;;;;2.43;1.23;;;;;;;4.14;94.53;100423.69;5055312;28;20489;-71
2020/12/09 02:09:20;;;;;;;1.23;1.13;;;;;;;4.17;94.42;100414.34;5054986;28;20950;-67
2020/12/09 02:11:47;;;;;;;1.97;1.07;;;;;;;4.09;94.89;100418.31;5055199;28;20481;-70
2020/12/09 02:14:13;;;;;;;2.33;2.13;;;;;;;4.07;95.80;100428.47;5055240;28;20458;-70
2020/12/09 02:16:40;;;;;;;1.93;1.70;;;;;;;4.08;96.23;100435.47;5054996;28;20518;-70
2020/12/09 02:19:07;;;;;;;1.90;1.80;;;;;;;4.12;96.56;100439.25;5055078;28;20860;-70
2020/12/09 02:21:35;;;;;;;2.63;1.73;;;;;;;4.05;97.28;100435.97;5055080;28;20496;-70
2020/12/09 02:24:01;;;;;;;1.37;1.27;;;;;;;4.06;96.79;100426.88;5054946;28;20496;-70
2020/12/09 02:26:28;;;;;;;0.57;0.57;;;;;;;4.00;96.45;100433.28;5054527;28;20466;-70
2020/12/09 02:28:55;;;;;;;1.27;0.87;;;;;;;4.00;96.56;100434.09;5054800;28;20466;-70
2020/12/09 02:31:21;;;;;;;16.13;2.93;;;;;;;3.93;95.94;100427.34;5054548;28;20445;-70
2020/12/09 02:33:47;;;;;;;1.47;0.90;;;;;;;3.94;95.73;100429.78;5054804;28;20442;-71
2020/12/09 02:36:13;;;;;;;3.40;1.53;;;;;;;3.91;95.61;100429.50;5054612;28;20521;-70
2020/12/09 02:38:41;;;;;;;0.90;0.60;;;;;;;3.90;95.91;100428.69;5054722;28;20477;-70
2020/12/09 02:41:08;;;;;;;4.33;2.03;;;;;;;3.96;96.33;100421.47;5054674;28;20446;-70
2020/12/09 02:43:34;;;;;;;3.97;3.00;;;;;;;3.95;95.90;100418.00;5054354;28;20982;-70
2020/12/09 02:46:00;;;;;;;5.50;2.27;;;;;;;3.93;95.44;100425.47;5054229;28;20481;-70
2020/12/09 02:48:26;;;;;;;1.43;1.43;;;;;;;3.90;96.00;100419.84;5054542;28;20442;-70
2020/12/09 02:50:55;;;;;;;2.33;2.23;;;;;;;3.87;96.88;100420.34;5054473;28;20496;-70
2020/12/09 02:53:21;;;;;;;0.63;0.63;;;;;;;3.88;97.56;100416.59;5054433;28;20434;-70
2020/12/09 02:55:48;;;;;;;3.53;2.93;;;;;;;3.86;97.98;100422.22;5054209;28;20521;-72
2020/12/09 02:58:15;;;;;;;3.23;2.20;;;;;;;3.86;98.24;100427.59;5054339;28;20512;-69
2020/12/09 03:00:41;;;;;;;8.43;2.93;;;;;;;3.82;98.41;100418.47;5053574;28;20461;-69
2020/12/09 03:03:07;;;;;;;2.67;1.33;;;;;;;3.80;98.45;100418.69;5054019;28;20474;-73
2020/12/09 03:05:33;;;;;;;0.77;0.70;;;;;;;3.86;98.49;100416.06;5054104;28;20458;-73
2020/12/09 03:07:59;;;;;;;2.33;1.10;;;;;;;3.82;98.52;100417.66;5053892;28;20434;-73
2020/12/09 03:10:25;;;;;;;1.20;1.17;;;;;;;3.80;99.00;100408.00;5053790;28;20470;-73
2020/12/09 03:12:52;;;;;;;16.00;2.77;;;;;;;3.80;98.89;100408.00;5053787;28;20928;-73
2020/12/09 03:15:19;;;;;;;0.50;0.50;;;;;;;3.78;98.81;100403.97;5054001;28;20494;-72
2020/12/09 03:17:45;;;;;;;4.67;1.83;;;;;;;3.77;99.23;100408.53;5053583;28;21024;-73
2020/12/09 03:20:11;;;;;;;3.30;3.10;;;;;;;3.87;99.35;100406.97;5053981;28;20858;-72
2020/12/09 03:22:37;;;;;;;2.20;2.10;;;;;;;3.82;99.77;100414.97;5053917;28;20470;-72
2020/12/09 03:25:03;;;;;;;9.83;3.87;;;;;;;3.76;100.00;100417.63;5053627;28;20442;-73
2020/12/09 03:27:30;;;;;;;6.80;2.10;;;;;;;3.78;99.85;100407.47;5053828;28;20423;-72
2020/12/09 03:29:57;;;;;;;3.17;0.90;;;;;;;3.82;99.39;100413.09;5053760;28;20446;-73
2020/12/09 03:32:23;;;;;;;0.73;0.73;;;;;;;3.85;98.95;100417.13;5053744;28;20438;-73
2020/12/09 03:34:49;;;;;;;30.97;1.90;;;;;;;3.90;98.25;100409.94;5053346;28;20508;-72
2020/12/09 03:37:15;;;;;;;1.90;1.17;;;;;;;3.90;97.86;100411.81;5053252;28;21035;-73
2020/12/09 03:39:41;;;;;;;5.83;2.80;;;;;;;3.90;97.75;100407.25;5053590;28;20446;-73
2020/12/09 03:42:07;;;;;;;0.90;0.90;;;;;;;3.78;98.18;100412.81;5053576;28;20438;-73
2020/12/09 03:44:34;;;;;;;0.60;0.60;;;;;;;3.73;98.92;100415.47;5053564;28;20497;-73
2020/12/09 03:47:04;;;;;;;1.60;0.90;;;;;;;3.73;98.96;100412.78;5053045;28;20486;-74
2020/12/09 03:49:31;;;;;;;1.20;1.03;;;;;;;3.78;98.91;100426.22;5053196;28;20462;-73
2020/12/09 03:51:57;;;;;;;3.27;1.63;;;;;;;3.80;98.68;100423.25;5053405;28;20446;-73
2020/12/09 03:54:24;;;;;;;4.87;4.03;;;;;;;3.85;99.26;100425.16;5053278;28;20458;-73
2020/12/09 03:56:50;;;;;;;2.00;1.90;;;;;;;3.74;99.57;100424.31;5052907;28;21065;-73
2020/12/09 03:59:16;;;;;;;0.77;0.77;;;;;;;3.84;99.57;100426.22;5053055;28;20955;-72
2020/12/09 04:01:42;;;;;;;8.80;1.93;;;;;;;3.84;99.58;100428.91;5053317;28;20512;-73
2020/12/09 04:04:10;;;;;;;1.27;1.00;;;;;;;3.89;99.48;100418.22;5053273;28;20446;-73
2020/12/09 04:06:36;;;;;;;2.23;1.43;;;;;;;3.91;99.41;100419.56;5052888;28;21025;-74
2020/12/09 04:09:03;;;;;;;2.43;1.50;;;;;;;3.94;99.12;100415.56;5053237;28;20442;-74
2020/12/09 04:11:29;;;;;;;5.50;2.87;;;;;;;3.95;98.92;100409.16;5053146;28;20511;-74
2020/12/09 04:13:55;;;;;;;1.80;1.70;;;;;;;3.86;99.16;100421.44;5053125;28;20484;-73
2020/12/09 04:16:21;;;;;;;1.20;1.10;;;;;;;3.84;99.51;100421.66;5052999;28;20489;-74
2020/12/09 04:18:48;;;;;;;1.97;1.23;;;;;;;3.87;99.21;100420.34;5052812;28;20471;-74
2020/12/09 04:21:15;;;;;;;3.30;2.97;;;;;;;3.88;98.92;100420.09;5053084;28;20445;-71
2020/12/09 04:23:41;;;;;;;3.63;2.00;;;;;;;3.91;99.46;100418.78;5053012;28;20445;-71
2020/12/09 04:26:08;;;;;;;4.87;3.83;;;;;;;3.89;98.51;100420.91;5052633;28;20906;-71
2020/12/09 04:28:34;;;;;;;0.50;0.47;;;;;;;3.93;97.87;100420.09;5052697;28;20796;-71
2020/12/09 04:31:00;;;;;;;1.53;1.33;;;;;;;3.91;96.90;100421.44;5052663;28;20447;-71
2020/12/09 04:33:28;;;;;;;3.23;1.10;;;;;;;3.79;96.83;100427.81;5078426;22;20853;-77
2020/12/09 04:35:54;;;;;;;3.37;2.03;;;;;;;3.83;97.15;100435.34;5053334;28;20515;-77
2020/12/09 04:38:22;;;;;;;2.57;2.47;;;;;;;3.88;97.40;100438.03;5052078;22;20503;-64
2020/12/09 04:40:49;;;;;;;1.30;1.20;;;;;;;3.89;97.82;100437.78;5038193;28;20439;-65
2020/12/09 04:43:15;;;;;;;1.23;0.80;;;;;;;3.93;97.08;100436.19;5037851;28;20883;-64
2020/12/09 04:45:41;;;;;;;1.53;1.43;;;;;;;3.94;96.09;100434.31;5037772;28;20443;-65
2020/12/09 04:48:09;;;;;;;3.80;3.50;;;;;;;3.89;96.27;100427.06;5039079;28;20466;-64
2020/12/09 04:50:49;;;;;;;2.10;2.00;;;;;;;3.87;97.79;100433.75;5038764;28;20439;-65
2020/12/09 04:53:23;;;;;;;9.03;3.43;;;;;;;3.88;97.76;100443.41;5037355;28;20459;-64
2020/12/09 04:55:52;;;;;;;1.27;0.80;;;;;;;3.86;98.20;100448.22;5038929;28;20906;-65
2020/12/09 04:58:28;;;;;;;0.60;0.50;;;;;;;3.83;98.48;100446.06;5038022;28;20490;-64
2020/12/09 05:01:05;;;;;;;3.50;2.07;;;;;;;3.88;98.83;100456.78;5035590;28;20449;-65
2020/12/09 05:03:41;;;;;;;2.07;1.73;;;;;;;3.96;98.29;100446.38;5035570;28;20459;-65
2020/12/09 05:06:08;;;;;;;1.23;1.13;;;;;;;4.00;98.04;100446.69;5034272;28;20474;-65
2020/12/09 05:08:37;;;;;;;0.50;0.50;;;;;;;4.01;97.86;100442.94;5034606;28;20486;-65
2020/12/09 05:11:07;;;;;;;2.03;1.47;;;;;;;3.98;97.84;100446.94;5034175;28;20534;-65
2020/12/09 05:13:35;;;;;;;2.10;2.00;;;;;;;3.94;98.10;100445.03;5034049;28;20827;-65
2020/12/09 05:16:02;;;;;;;0.57;0.57;;;;;;;3.94;98.28;100447.72;5035356;28;20448;-65
2020/12/09 05:18:37;;;;;;;5.43;2.10;;;;;;;3.97;98.30;100439.97;5035180;28;20443;-65
2020/12/09 05:21:15;;;;;;;0.70;0.63;;;;;;;3.87;98.49;100439.91;5035342;28;20427;-64
2020/12/09 05:23:48;;;;;;;2.07;1.97;;;;;;;3.91;98.20;100443.69;5037661;28;20513;-65
2020/12/09 05:26:22;;;;;;;1.53;1.23;;;;;;;3.80;97.93;100437.44;5038356;28;20423;-64
2020/12/09 05:28:48;;;;;;;5.07;3.27;;;;;;;3.77;98.05;100447.91;5038291;28;20477;-64
2020/12/09 05:31:19;;;;;;;1.53;1.43;;;;;;;3.71;98.39;100438.22;5037746;28;20431;-64
2020/12/09 05:33:45;;;;;;;4.97;4.47;;;;;;;3.71;98.51;100441.69;5037863;28;20455;-65
2020/12/09 05:36:11;;;;;;;4.87;2.97;;;;;;;3.74;98.52;100446.53;5039255;28;20936;-65
2020/12/09 05:38:38;;;;;;;2.13;1.53;;;;;;;3.60;98.87;100432.00;5039693;28;20455;-65
2020/12/09 05:41:11;;;;;;;1.53;1.43;;;;;;;3.59;99.21;100440.28;5039795;28;20511;-64
2020/12/09 05:43:42;;;;;;;3.10;1.83;;;;;;;3.50;99.04;100450.69;5039571;28;21071;-64
2020/12/09 05:46:09;;;;;;;0.80;0.80;;;;;;;3.52;99.34;100448.53;5040405;28;20491;-64
2020/12/09 05:48:36;;;;;;;0.67;0.53;;;;;;;3.53;99.72;100466.22;5041456;28;20451;-64
2020/12/09 05:51:03;;;;;;;2.37;2.17;;;;;;;3.54;100.00;100457.09;5042117;28;20518;-64
2020/12/09 05:53:31;;;;;;;10.20;3.37;;;;;;;3.54;100.00;100468.66;5042079;28;20467;-65
2020/12/09 05:56:13;;;;;;;2.33;2.23;;;;;;;3.55;100.00;100469.47;5041201;28;20477;-64
2020/12/09 05:58:41;;;;;;;1.60;1.10;;;;;;;3.59;100.00;100467.06;5039140;28;20530;-64
2020/12/09 06:01:10;;;;;;;1.43;1.33;;;;;;;3.54;100.00;100462.47;5038189;28;20503;-64
2020/12/09 06:03:38;;;;;;;1.43;1.37;;;;;;;3.54;100.00;100462.47;5040092;28;20471;-65
2020/12/09 06:06:12;;;;;;;2.67;2.50;;;;;;;3.53;100.00;100467.00;5041040;28;20447;-64
2020/12/09 06:08:41;;;;;;;1.60;1.20;;;;;;;3.58;100.00;100474.28;5042217;28;20513;-65
2020/12/09 06:11:08;;;;;;;4.00;2.60;;;;;;;3.62;100.00;100467.34;5043582;28;20447;-64
2020/12/09 06:13:35;;;;;;;7.83;1.80;;;;;;;3.69;100.00;100470.63;5042793;28;20517;-65
2020/12/09 06:16:02;;;;;;;4.30;1.77;;;;;;;3.64;100.00;100459.88;5043807;28;20474;-65
2020/12/09 06:18:30;;;;;;;11.53;3.77;;;;;;;3.70;100.00;100466.88;5041360;28;20487;-65
2020/12/09 06:20:57;;;;;;;1.37;1.27;;;;;;;3.69;100.00;100465.25;5042063;28;20493;-64
2020/12/09 06:23:26;;;;;;;1.57;0.80;;;;;;;3.60;100.00;100466.81;5040652;28;20474;-64
2020/12/09 06:25:52;;;;;;;4.43;1.63;;;;;;;3.60;100.00;100471.34;5040800;28;20952;-65
2020/12/09 06:28:20;;;;;;;8.63;1.93;;;;;;;3.55;99.99;100464.09;5040344;28;20454;-64
2020/12/09 06:30:48;;;;;;;19.37;2.30;;;;;;;3.53;100.00;100467.00;5039388;28;20502;-65
2020/12/09 06:33:28;;;;;;;4.03;2.03;;;;;;;3.53;100.00;100477.72;5039056;28;20517;-64
2020/12/09 06:36:12;;;;;;;1.40;1.30;;;;;;;3.60;100.00;100488.22;5038552;28;20419;-65
2020/12/09 06:38:38;;;;;;;1.60;1.50;;;;;;;3.60;100.00;100480.19;5039349;28;20870;-65
2020/12/09 06:41:12;;;;;;;2.80;2.60;;;;;;;3.61;99.79;100479.13;5040724;28;20985;-64
2020/12/09 06:43:39;;;;;;;1.67;1.57;;;;;;;3.60;99.49;100487.44;5042570;28;20467;-64
2020/12/09 06:46:06;;;;;;;1.00;1.00;;;;;;;3.61;99.57;100492.50;5041723;28;20828;-65
2020/12/09 06:48:39;;;;;;;5.97;1.77;;;;;;;3.60;99.37;100493.59;5041350;28;20435;-64
2020/12/09 06:51:40;;;;;;;0.60;0.53;;;;;;;3.61;98.93;100478.31;5037876;28;20482;-62
2020/12/09 06:54:13;;;;;;;1.10;1.10;;;;;;;3.67;98.95;100482.63;4958142;29;20553;-63
2020/12/09 06:56:39;;;;;;;2.97;2.10;;;;;;;3.58;98.48;100479.63;4960747;29;20526;-62
2020/12/09 06:59:25;;;;;;;3.73;2.60;;;;;;;3.56;97.78;100481.78;4998104;28;20493;-61
2020/12/09 07:02:02;;;;;;;3.00;2.37;;;;;;;3.51;98.23;100487.09;5039556;28;20431;-62
2020/12/09 07:05:05;;;;;;;0.43;0.37;;;;;;;3.51;98.54;100487.09;5038838;28;20458;-62
2020/12/09 07:07:34;;;;;;;0.97;0.80;;;;;;;3.54;98.55;100492.75;4955000;29;20881;-63
2020/12/09 07:10:02;;;;;;;1.17;1.17;;;;;;;3.55;98.47;100501.59;5020912;28;20485;-64
2020/12/09 07:12:28;;;;;;;3.37;1.97;;;;;;;3.57;97.85;100501.31;5040909;28;21022;-64
2020/12/09 07:14:56;;;;;;;8.67;2.40;;;;;;;3.53;98.93;100514.41;5040399;28;20472;-64
2020/12/09 07:17:25;;;;;;;5.80;1.90;;;;;;;3.61;98.57;100511.25;5040610;28;20482;-64
2020/12/09 07:19:52;;;;;;;2.70;2.50;;;;;;;3.64;98.79;100518.00;5040339;28;20436;-65
2020/12/09 07:22:19;;;;;;;0.60;0.60;;;;;;;3.66;99.23;100518.53;5038768;28;20455;-65
2020/12/09 07:24:45;;;;;;;1.50;0.90;;;;;;;3.73;99.26;100525.28;5038195;28;20467;-65
2020/12/09 07:27:12;;;;;;;1.97;1.33;;;;;;;3.75;99.20;100528.50;5039742;28;20435;-65
2020/12/09 07:29:39;;;;;;;1.03;0.93;;;;;;;3.79;98.97;100529.59;5039343;28;20449;-65
2020/12/09 07:32:07;;;;;;;4.17;2.80;;;;;;;3.79;98.96;100528.81;5040732;28;20437;-64
2020/12/09 07:34:34;;;;;;;0.90;0.77;;;;;;;3.79;99.33;100526.13;5041671;28;20525;-65
2020/12/09 07:37:00;;;;;;;3.90;2.23;;;;;;;3.77;99.30;100529.06;5039790;28;20568;-65
2020/12/09 07:39:28;;;;;;;1.23;0.47;;;;;;;3.83;99.33;100529.09;5041745;28;20497;-64
2020/12/09 07:41:58;;;;;;;1.63;1.53;;;;;;;3.79;99.40;100520.75;5040457;28;20443;-64
2020/12/09 07:44:24;;;;;;;7.40;3.10;;;;;;;3.80;99.16;100528.53;5039949;28;20899;-65
2020/12/09 07:46:55;;;;;;;7.50;2.90;;;;;;;3.81;99.04;100526.69;5039043;28;20431;-65
2020/12/09 07:49:22;;;;;;;1.80;1.33;;;;;;;3.80;98.60;100531.22;5039121;28;20505;-64
2020/12/09 07:51:51;;;;;;;2.30;0.70;;;;;;;3.76;98.08;100530.16;5036719;28;20443;-64
2020/12/09 07:54:18;;;;;;;2.67;2.50;;;;;;;3.81;97.45;100537.41;5037633;28;20460;-65
2020/12/09 07:56:45;;;;;;;1.33;1.07;;;;;;;3.80;97.81;100531.22;5038495;28;20487;-65
2020/12/09 07:59:12;;;;;;;3.20;2.87;;;;;;;3.82;97.25;100527.50;5039087;28;20443;-65
2020/12/09 08:01:38;;;;;;;2.60;2.50;;;;;;;3.76;96.83;100519.44;5039248;28;20460;-64
2020/12/09 08:04:05;;;;;;;2.57;2.47;;;;;;;3.78;96.97;100524.50;5038273;28;20467;-65
2020/12/09 08:06:33;;;;;;;9.17;1.97;;;;;;;3.78;96.59;100540.59;5036421;28;20447;-65
2020/12/09 08:09:13;;;;;;;4.63;4.17;;;;;;;3.83;96.29;100542.50;5037823;28;20457;-65
2020/12/09 08:11:43;;;;;;;1.60;0.93;;;;;;;3.83;96.37;100534.47;5037378;28;20427;-65
2020/12/09 08:14:10;;;;;;;1.93;1.30;;;;;;;3.88;97.08;100534.50;5038785;28;20554;-65
2020/12/09 08:16:38;;;;;;;2.90;2.40;;;;;;;3.92;96.28;100535.59;5035974;28;20490;-66
2020/12/09 08:19:07;;;;;;;3.97;1.53;;;;;;;3.91;96.42;100548.19;5035378;28;20500;-63
2020/12/09 08:21:34;;;;;;;0.80;0.77;;;;;;;3.85;95.61;100543.03;5033781;28;20447;-63
2020/12/09 08:24:10;;;;;;;1.83;1.73;;;;;;;3.91;96.12;100542.03;5034258;28;20557;-63
2020/12/09 08:26:38;;;;;;;3.13;1.50;;;;;;;3.95;96.67;100537.75;5033476;28;20431;-64
2020/12/09 08:29:05;;;;;;;7.33;3.53;;;;;;;3.98;96.46;100545.25;5033329;28;20440;-61
2020/12/09 08:31:32;;;;;;;7.63;3.20;;;;;;;4.07;96.45;100549.06;5033203;28;20455;-63
2020/12/09 08:33:58;;;;;;;2.43;2.00;;;;;;;4.09;96.44;100552.31;5033056;28;20554;-63
2020/12/09 08:36:38;;;;;;;3.40;3.20;;;;;;;4.12;95.98;100553.66;5033073;28;20447;-64
2020/12/09 08:39:06;;;;;;;2.90;2.70;;;;;;;4.08;96.01;100550.72;5033028;28;20458;-62
2020/12/09 08:41:34;;;;;;;2.80;2.27;;;;;;;4.11;96.40;100547.50;5033061;28;20450;-63
2020/12/09 08:44:03;;;;;;;1.63;0.83;;;;;;;4.10;96.40;100551.25;5032942;28;20469;-63
2020/12/09 08:46:31;;;;;;;4.40;1.67;;;;;;;4.11;95.92;100550.19;5034983;28;20493;-62
2020/12/09 08:48:58;;;;;;;6.40;2.83;;;;;;;4.19;95.59;100549.69;5035158;28;20450;-63
2020/12/09 08:51:25;;;;;;;3.90;1.80;;;;;;;4.13;95.58;100540.03;5034299;28;20496;-62
2020/12/09 08:53:51;;;;;;;3.03;2.80;;;;;;;4.19;95.48;100538.97;5035443;28;20462;-62
2020/12/09 08:56:24;;;;;;;1.60;1.37;;;;;;;4.26;95.32;100544.91;5036868;28;20447;-63
2020/12/09 08:58:50;;;;;;;14.63;4.37;;;;;;;4.27;95.48;100551.09;5038499;28;20467;-63
2020/12/09 09:01:17;;;;;;;8.23;3.50;;;;;;;4.26;94.99;100544.13;5039918;28;20512;-64
2020/12/09 09:03:45;;;;;;;2.73;2.50;;;;;;;4.20;95.19;100539.78;5039111;28;20874;-63
2020/12/09 09:06:11;;;;;;;3.50;3.20;;;;;;;4.17;95.38;100551.84;5038941;28;20533;-62
2020/12/09 09:08:37;;;;;;;3.77;3.00;;;;;;;4.15;94.99;100559.31;5039456;28;20497;-63
2020/12/09 09:11:04;;;;;;;1.30;0.80;;;;;;;4.19;94.74;100555.06;5038487;28;20493;-62
2020/12/09 09:13:30;;;;;;;3.00;2.40;;;;;;;4.15;94.73;100553.16;5037598;28;20502;-63
2020/12/09 09:15:57;;;;;;;2.93;2.70;;;;;;;4.15;94.83;100553.16;5038762;28;20478;-64
2020/12/09 09:18:24;;;;;;;2.70;1.80;;;;;;;4.14;94.88;100560.38;5029330;28;20995;-65
2020/12/09 09:20:53;;;;;;;0.50;0.40;;;;;;;4.21;94.67;100550.25;5019790;28;20440;-64
2020/12/09 09:23:19;;;;;;;2.50;1.53;;;;;;;4.24;95.16;100563.13;5020287;28;20480;-64
2020/12/09 09:25:46;;;;;;;8.17;3.23;;;;;;;4.25;94.65;100564.75;5018407;28;20447;-63
2020/12/09 09:28:12;;;;;;;8.53;2.20;;;;;;;4.31;94.35;100570.94;5018582;28;20502;-62
2020/12/09 09:30:38;;;;;;;1.23;1.13;;;;;;;4.24;94.56;100570.38;5018409;28;20497;-64
2020/12/09 09:33:04;;;;;;;5.13;2.33;;;;;;;4.19;94.66;100578.38;5016511;28;20494;-64
2020/12/09 09:35:31;;;;;;;1.30;1.20;;;;;;;4.13;94.27;100568.69;5016457;28;20988;-65
2020/12/09 09:37:57;;;;;;;3.90;3.53;;;;;;;4.05;93.68;100570.78;5016440;28;20519;-65
2020/12/09 09:40:23;;;;;;;0.90;0.83;;;;;;;3.99;94.65;100577.19;5017648;28;21027;-65
2020/12/09 09:42:50;;;;;;;2.93;1.87;;;;;;;4.03;94.32;100578.28;5017483;28;20490;-64
2020/12/09 09:45:16;;;;;;;4.37;2.77;;;;;;;4.00;93.71;100573.44;5019355;28;20471;-64
2020/12/09 09:47:43;;;;;;;2.30;1.40;;;;;;;3.90;94.09;100575.25;5020511;28;20497;-66
2020/12/09 09:50:09;;;;;;;4.07;2.00;;;;;;;3.95;93.63;100572.59;5020663;28;20475;-66
2020/12/09 09:52:36;;;;;;;9.13;2.13;;;;;;;3.99;92.86;100582.53;5020028;28;20432;-65
2020/12/09 09:55:03;;;;;;;3.60;3.07;;;;;;;4.00;93.57;100586.03;5019803;28;20455;-64
2020/12/09 09:57:30;;;;;;;2.40;1.90;;;;;;;3.94;93.59;100592.41;5018415;28;20903;-65
2020/12/09 09:59:56;;;;;;;1.10;1.10;;;;;;;3.99;93.97;100600.50;5018754;28;20448;-65
2020/12/09 10:02:22;;;;;;;11.73;5.10;;;;;;;4.06;94.34;100595.72;5015951;28;20439;-64
2020/12/09 10:04:49;;;;;;;6.60;4.43;;;;;;;4.13;94.06;100588.25;5016059;28;20807;-65
2020/12/09 10:07:15;;;;;;;3.13;2.83;;;;;;;4.15;93.80;100580.75;5017133;28;20502;-65
2020/12/09 10:09:42;;;;;;;3.90;1.53;;;;;;;4.18;94.04;100585.63;5025776;28;20513;-65
2020/12/09 10:12:08;;;;;;;0.83;0.83;;;;;;;4.18;93.84;100580.25;5037523;28;20447;-64
2020/12/09 10:14:35;;;;;;;2.67;2.47;;;;;;;4.16;92.50;100578.88;5036212;28;20521;-64
2020/12/09 10:17:01;;;;;;;4.30;3.33;;;;;;;4.21;92.58;100574.38;5037687;28;20509;-65
2020/12/09 10:19:28;;;;;;;2.40;2.20;;;;;;;4.34;92.28;100580.34;5038115;28;20432;-65
2020/12/09 10:21:54;;;;;;;3.43;2.40;;;;;;;4.30;91.61;100578.19;5036915;28;20435;-64
2020/12/09 10:24:20;;;;;;;10.77;3.07;;;;;;;4.33;92.12;100570.69;5036951;28;20501;-64
2020/12/09 10:26:47;;;;;;;30.27;4.13;;;;;;;4.33;91.59;100574.16;5036387;28;20789;-63
2020/12/09 10:29:14;;;;;;;1.70;1.60;;;;;;;4.34;91.54;100566.94;5036503;28;20450;-64
2020/12/09 10:31:41;;;;;;;2.87;2.67;;;;;;;4.44;91.06;100567.81;5036885;28;20500;-63
2020/12/09 10:34:15;;;;;;;0.80;0.60;;;;;;;4.50;90.82;100572.13;5070049;22;20840;-72
2020/12/09 10:36:48;;;;;;;1.90;1.20;;;;;;;4.51;90.71;100578.28;5054811;28;20433;-72
2020/12/09 10:39:14;;;;;;;4.80;3.90;;;;;;;4.43;90.70;100573.44;5054797;28;20530;-73
2020/12/09 10:41:41;;;;;;;2.63;1.07;;;;;;;4.41;90.76;100575.56;5054711;28;20806;-73
2020/12/09 10:44:08;;;;;;;3.80;2.90;;;;;;;4.43;91.16;100582.28;5065247;28;20477;-72
2020/12/09 10:46:36;;;;;;;2.57;2.47;;;;;;;4.45;92.02;100580.13;5054490;28;20446;-69
2020/12/09 10:49:04;;;;;;;7.40;3.13;;;;;;;4.58;91.28;100575.38;5054283;28;20441;-76
2020/12/09 10:51:30;;;;;;;3.80;1.43;;;;;;;4.59;90.53;100575.09;5054136;28;20827;-73
2020/12/09 10:53:58;;;;;;;9.10;6.17;;;;;;;4.52;90.75;100577.25;5054328;28;20518;-72
2020/12/09 10:56:26;;;;;;;5.60;3.13;;;;;;;4.58;90.85;100576.19;5054238;28;20434;-71
2020/12/09 10:58:52;;;;;;;1.93;1.50;;;;;;;4.58;91.58;100568.13;5053995;28;20999;-70
2020/12/09 11:01:20;;;;;;;5.03;2.90;;;;;;;4.55;91.70;100566.78;5053285;28;20438;-70
2020/12/09 11:03:46;;;;;;;1.70;1.60;;;;;;;4.60;91.70;100570.53;5063313;28;20477;-71
2020/12/09 11:06:12;;;;;;;2.17;2.07;;;;;;;4.67;91.66;100568.44;5074160;28;20434;-70
2020/12/09 11:08:39;;;;;;;10.70;3.97;;;;;;;4.83;91.58;100572.81;5073800;28;20440;-71
2020/12/09 11:11:05;;;;;;;4.87;3.83;;;;;;;4.84;91.15;100573.63;5073781;28;20472;-71
2020/12/09 11:13:32;;;;;;;2.50;1.67;;;;;;;4.81;90.65;100582.97;5073878;28;20465;-70
2020/12/09 11:15:58;;;;;;;5.73;4.00;;;;;;;4.75;90.32;100576.00;5074046;28;20506;-71
2020/12/09 11:18:25;;;;;;;0.57;0.57;;;;;;;4.79;89.83;100572.53;5073938;28;20481;-71
2020/12/09 11:20:51;;;;;;;3.07;2.07;;;;;;;4.77;90.68;100577.31;5072999;28;20497;-70
2020/12/09 11:23:17;;;;;;;3.10;2.90;;;;;;;4.83;90.57;100580.06;5073572;28;20495;-71
2020/12/09 11:25:44;;;;;;;3.87;2.80;;;;;;;4.88;90.16;100583.56;5073470;28;20938;-70
2020/12/09 11:28:10;;;;;;;2.50;2.10;;;;;;;4.76;89.60;100574.91;5073730;28;20430;-70
2020/12/09 11:30:37;;;;;;;3.50;1.30;;;;;;;4.78;89.09;100578.97;5073428;28;20487;-70
2020/12/09 11:33:03;;;;;;;2.60;0.70;;;;;;;4.73;88.68;100572.75;5073505;28;20495;-70
2020/12/09 11:35:30;;;;;;;1.97;1.77;;;;;;;4.67;88.72;100573.81;5073381;28;20479;-71